sensor_id;sensor_type;location;lat;lon;timestamp;P1;durP1;ratioP1;P2;durP2;ratioP2
6902;SDS011;20232;49.408;8.702;2023-05-16T04:07:31;43.90;;;34.83;;
6902;SDS011;20232;49.408;8.702;2023-05-16T04:09:57;45.63;;;36.30;;
6902;SDS011;20232;49.408;8.702;2023-05-16T04:12:22;45.10;;;34.77;;
6902;SDS011;20232;49.408;8.702;2023-05-16T04:14:48;42.20;;;33.70;;
6902;SDS011;20232;49.408;8.702;2023-05-16T04:17:13;40.90;;;32.73;;
6902;SDS011;20232;49.408;8.702;2023-05-16T04:19:39;39.27;;;31.13;;
6902;SDS011;20232;49.408;8.702;2023-05-16T04:22:04;41.20;;;30.90;;
6902;SDS011;20232;49.408;8.702;2023-05-16T04:24:30;38.70;;;29.57;;
6902;SDS011;20232;49.408;8.702;2023-05-16T04:26:55;32.23;;;27.43;;
6902;SDS011;20232;49.408;8.702;2023-05-16T04:29:21;31.17;;;26.67;;
6902;SDS011;20232;49.408;8.702;2023-05-16T04:31:47;32.40;;;26.27;;
6902;SDS011;20232;49.408;8.702;2023-05-16T04:34:13;29.90;;;25.60;;
6902;SDS011;20232;49.408;8.702;2023-05-16T04:36:39;30.50;;;25.10;;
6902;SDS011;20232;49.408;8.702;2023-05-16T04:39:05;31.10;;;25.10;;
6902;SDS011;20232;49.408;8.702;2023-05-16T04:41:31;31.10;;;25.40;;
6902;SDS011;20232;49.408;8.702;2023-05-16T04:43:57;28.53;;;24.97;;
6902;SDS011;20232;49.408;8.702;2023-05-16T04:46:23;32.37;;;25.07;;
6902;SDS011;20232;49.408;8.702;2023-05-16T04:48:48;30.87;;;24.67;;
6902;SDS011;20232;49.408;8.702;2023-05-16T04:51:14;30.70;;;25.33;;
6902;SDS011;20232;49.408;8.702;2023-05-16T04:53:39;28.20;;;24.50;;
6902;SDS011;20232;49.408;8.702;2023-05-16T04:56:05;30.63;;;24.97;;
6902;SDS011;20232;49.408;8.702;2023-05-16T04:58:30;31.37;;;24.60;;
6902;SDS011;20232;49.408;8.702;2023-05-16T05:00:56;27.97;;;23.20;;
6902;SDS011;20232;49.408;8.702;2023-05-16T05:03:22;31.07;;;24.60;;
6902;SDS011;20232;49.408;8.702;2023-05-16T05:05:47;28.23;;;23.53;;
6902;SDS011;20232;49.408;8.702;2023-05-16T05:08:12;30.47;;;24.90;;
6902;SDS011;20232;49.408;8.702;2023-05-16T05:10:38;28.90;;;23.70;;
6902;SDS011;20232;49.408;8.702;2023-05-16T05:13:04;30.53;;;23.97;;
6902;SDS011;20232;49.408;8.702;2023-05-16T05:15:30;28.60;;;23.60;;
6902;SDS011;20232;49.408;8.702;2023-05-16T05:17:55;30.53;;;23.13;;
6902;SDS011;20232;49.408;8.702;2023-05-16T05:20:20;33.20;;;23.63;;
6902;SDS011;20232;49.408;8.702;2023-05-16T05:22:46;28.33;;;23.03;;
6902;SDS011;20232;49.408;8.702;2023-05-16T05:25:11;28.93;;;23.30;;
6902;SDS011;20232;49.408;8.702;2023-05-16T05:27:37;28.50;;;22.63;;
6902;SDS011;20232;49.408;8.702;2023-05-16T05:30:03;29.67;;;23.70;;
6902;SDS011;20232;49.408;8.702;2023-05-16T05:32:29;31.53;;;23.87;;
6902;SDS011;20232;49.408;8.702;2023-05-16T05:34:55;29.37;;;22.50;;
6902;SDS011;20232;49.408;8.702;2023-05-16T05:37:20;29.10;;;23.03;;
6902;SDS011;20232;49.408;8.702;2023-05-16T05:39:45;30.63;;;22.93;;
6902;SDS011;20232;49.408;8.702;2023-05-16T05:42:11;26.63;;;22.83;;
6902;SDS011;20232;49.408;8.702;2023-05-16T05:44:36;29.37;;;22.87;;
6902;SDS011;20232;49.408;8.702;2023-05-16T05:47:03;25.53;;;21.20;;
6902;SDS011;20232;49.408;8.702;2023-05-16T05:49:29;30.37;;;24.50;;
6902;SDS011;20232;49.408;8.702;2023-05-16T05:51:55;30.10;;;23.47;;
6902;SDS011;20232;49.408;8.702;2023-05-16T05:54:21;27.60;;;22.80;;
6902;SDS011;20232;49.408;8.702;2023-05-16T05:56:47;28.00;;;22.27;;
6902;SDS011;20232;49.408;8.702;2023-05-16T05:59:12;30.33;;;23.17;;
6902;SDS011;20232;49.408;8.702;2023-05-16T06:01:38;28.63;;;22.73;;
6902;SDS011;20232;49.408;8.702;2023-05-16T06:04:03;30.03;;;22.37;;
6902;SDS011;20232;49.408;8.702;2023-05-16T06:06:29;27.30;;;22.37;;
6902;SDS011;20232;49.408;8.702;2023-05-16T06:08:56;27.27;;;20.50;;
6902;SDS011;20232;49.408;8.702;2023-05-16T06:11:21;28.97;;;21.57;;
6902;SDS011;20232;49.408;8.702;2023-05-16T06:13:47;27.37;;;21.17;;
6902;SDS011;20232;49.408;8.702;2023-05-16T06:16:12;28.73;;;21.40;;
6902;SDS011;20232;49.408;8.702;2023-05-16T06:18:38;26.53;;;20.60;;
6902;SDS011;20232;49.408;8.702;2023-05-16T06:21:03;30.73;;;23.37;;
6902;SDS011;20232;49.408;8.702;2023-05-16T06:23:30;26.67;;;19.97;;
6902;SDS011;20232;49.408;8.702;2023-05-16T06:25:55;25.70;;;20.47;;
6902;SDS011;20232;49.408;8.702;2023-05-16T06:28:21;23.87;;;19.23;;
6902;SDS011;20232;49.408;8.702;2023-05-16T06:30:48;26.27;;;19.93;;
6902;SDS011;20232;49.408;8.702;2023-05-16T06:33:15;27.07;;;19.83;;
6902;SDS011;20232;49.408;8.702;2023-05-16T06:35:41;26.67;;;19.57;;
6902;SDS011;20232;49.408;8.702;2023-05-16T06:38:06;24.63;;;19.27;;
6902;SDS011;20232;49.408;8.702;2023-05-16T06:40:32;25.10;;;18.40;;
6902;SDS011;20232;49.408;8.702;2023-05-16T06:42:57;27.27;;;18.27;;
6902;SDS011;20232;49.408;8.702;2023-05-16T06:45:23;22.53;;;18.33;;
6902;SDS011;20232;49.408;8.702;2023-05-16T06:47:48;20.97;;;18.07;;
6902;SDS011;20232;49.408;8.702;2023-05-16T06:50:13;22.07;;;18.40;;
6902;SDS011;20232;49.408;8.702;2023-05-16T06:52:39;20.07;;;16.00;;
6902;SDS011;20232;49.408;8.702;2023-05-16T06:55:06;19.67;;;16.13;;
6902;SDS011;20232;49.408;8.702;2023-05-16T06:57:31;21.23;;;16.93;;
6902;SDS011;20232;49.408;8.702;2023-05-16T06:59:57;20.50;;;15.57;;
6902;SDS011;20232;49.408;8.702;2023-05-16T07:02:22;18.80;;;14.90;;
6902;SDS011;20232;49.408;8.702;2023-05-16T07:04:47;19.93;;;15.83;;
6902;SDS011;20232;49.408;8.702;2023-05-16T07:07:13;19.87;;;14.80;;
6902;SDS011;20232;49.408;8.702;2023-05-16T07:09:39;16.70;;;13.80;;
6902;SDS011;20232;49.408;8.702;2023-05-16T07:12:05;18.87;;;13.87;;
6902;SDS011;20232;49.408;8.702;2023-05-16T07:14:30;14.27;;;11.93;;
6902;SDS011;20232;49.408;8.702;2023-05-16T07:16:56;16.03;;;12.27;;
6902;SDS011;20232;49.408;8.702;2023-05-16T07:19:21;13.83;;;11.30;;
6902;SDS011;20232;49.408;8.702;2023-05-16T07:21:46;12.03;;;10.73;;
6902;SDS011;20232;49.408;8.702;2023-05-16T07:24:12;13.53;;;9.80;;
6902;SDS011;20232;49.408;8.702;2023-05-16T07:26:37;13.00;;;9.70;;
6902;SDS011;20232;49.408;8.702;2023-05-16T07:29:03;10.63;;;9.53;;
6902;SDS011;20232;49.408;8.702;2023-05-16T07:31:28;10.57;;;8.97;;
6902;SDS011;20232;49.408;8.702;2023-05-16T07:33:55;9.13;;;8.23;;
6902;SDS011;20232;49.408;8.702;2023-05-16T07:36:20;9.20;;;8.10;;
6902;SDS011;20232;49.408;8.702;2023-05-16T07:38:46;9.67;;;8.10;;
6902;SDS011;20232;49.408;8.702;2023-05-16T07:41:11;8.23;;;7.43;;
6902;SDS011;20232;49.408;8.702;2023-05-16T07:43:36;8.83;;;7.30;;
6902;SDS011;20232;49.408;8.702;2023-05-16T07:46:02;9.37;;;7.07;;
6902;SDS011;20232;49.408;8.702;2023-05-16T07:48:27;7.47;;;6.63;;
6902;SDS011;20232;49.408;8.702;2023-05-16T07:50:53;7.80;;;7.00;;
6902;SDS011;20232;49.408;8.702;2023-05-16T07:53:19;7.53;;;6.07;;
6902;SDS011;20232;49.408;8.702;2023-05-16T07:55:45;10.70;;;5.53;;
6902;SDS011;20232;49.408;8.702;2023-05-16T07:58:10;5.87;;;5.37;;
6902;SDS011;20232;49.408;8.702;2023-05-16T08:00:36;6.43;;;5.30;;
6902;SDS011;20232;49.408;8.702;2023-05-16T08:03:01;5.97;;;4.83;;
6902;SDS011;20232;49.408;8.702;2023-05-16T08:05:27;4.80;;;4.40;;
6902;SDS011;20232;49.408;8.702;2023-05-16T08:07:52;6.00;;;4.17;;
6902;SDS011;20232;49.408;8.702;2023-05-16T08:10:18;3.70;;;3.40;;
6902;SDS011;20232;49.408;8.702;2023-05-16T08:12:43;4.30;;;3.90;;
6902;SDS011;20232;49.408;8.702;2023-05-16T08:15:09;4.20;;;3.80;;
6902;SDS011;20232;49.408;8.702;2023-05-16T08:17:35;4.20;;;3.80;;
6902;SDS011;20232;49.408;8.702;2023-05-16T08:20:01;4.43;;;3.70;;
6902;SDS011;20232;49.408;8.702;2023-05-16T08:22:26;4.03;;;3.40;;
6902;SDS011;20232;49.408;8.702;2023-05-16T08:24:52;5.23;;;3.67;;
6902;SDS011;20232;49.408;8.702;2023-05-16T08:27:21;5.43;;;4.10;;
6902;SDS011;20232;49.408;8.702;2023-05-16T08:29:47;3.70;;;3.40;;
6902;SDS011;20232;49.408;8.702;2023-05-16T08:32:13;4.17;;;2.93;;
6902;SDS011;20232;49.408;8.702;2023-05-16T08:34:38;2.40;;;2.20;;
6902;SDS011;20232;49.408;8.702;2023-05-16T08:37:04;3.43;;;2.17;;
6902;SDS011;20232;49.408;8.702;2023-05-16T08:39:29;2.40;;;2.20;;
6902;SDS011;20232;49.408;8.702;2023-05-16T08:41:54;2.10;;;2.00;;
6902;SDS011;20232;49.408;8.702;2023-05-16T08:44:20;2.20;;;2.00;;
6902;SDS011;20232;49.408;8.702;2023-05-16T08:46:48;2.20;;;2.10;;
6902;SDS011;20232;49.408;8.702;2023-05-16T08:49:15;1.80;;;1.70;;
6902;SDS011;20232;49.408;8.702;2023-05-16T08:51:41;6.43;;;1.90;;
6902;SDS011;20232;49.408;8.702;2023-05-16T08:54:10;1.97;;;1.87;;
6902;SDS011;20232;49.408;8.702;2023-05-16T08:56:40;2.43;;;1.80;;
6902;SDS011;20232;49.408;8.702;2023-05-16T08:59:06;1.97;;;1.87;;
6902;SDS011;20232;49.408;8.702;2023-05-16T09:01:32;1.73;;;1.63;;
6902;SDS011;20232;49.408;8.702;2023-05-16T09:03:57;2.40;;;2.20;;
6902;SDS011;20232;49.408;8.702;2023-05-16T09:06:24;1.90;;;1.80;;
6902;SDS011;20232;49.408;8.702;2023-05-16T09:08:50;2.20;;;2.10;;
6902;SDS011;20232;49.408;8.702;2023-05-16T09:11:16;2.40;;;2.20;;
6902;SDS011;20232;49.408;8.702;2023-05-16T09:13:42;2.10;;;1.90;;
6902;SDS011;20232;49.408;8.702;2023-05-16T09:16:09;1.90;;;1.80;;
6902;SDS011;20232;49.408;8.702;2023-05-16T09:18:38;2.00;;;1.90;;
6902;SDS011;20232;49.408;8.702;2023-05-16T09:21:05;1.90;;;1.80;;
6902;SDS011;20232;49.408;8.702;2023-05-16T09:23:33;1.90;;;1.80;;
6902;SDS011;20232;49.408;8.702;2023-05-16T09:25:59;4.20;;;1.73;;
6902;SDS011;20232;49.408;8.702;2023-05-16T09:28:24;2.13;;;1.73;;
6902;SDS011;20232;49.408;8.702;2023-05-16T09:30:51;2.00;;;1.90;;
6902;SDS011;20232;49.408;8.702;2023-05-16T09:33:17;2.03;;;1.83;;
6902;SDS011;20232;49.408;8.702;2023-05-16T09:35:42;1.90;;;1.80;;
6902;SDS011;20232;49.408;8.702;2023-05-16T09:38:14;1.77;;;1.67;;
6902;SDS011;20232;49.408;8.702;2023-05-16T09:40:40;1.67;;;1.57;;
6902;SDS011;20232;49.408;8.702;2023-05-16T09:43:06;2.13;;;1.93;;
6902;SDS011;20232;49.408;8.702;2023-05-16T09:45:33;1.80;;;1.70;;
6902;SDS011;20232;49.408;8.702;2023-05-16T09:48:06;1.70;;;1.60;;
6902;SDS011;20232;49.408;8.702;2023-05-16T09:50:33;1.90;;;1.63;;
6902;SDS011;20232;49.408;8.702;2023-05-16T09:52:59;1.47;;;1.37;;
6902;SDS011;20232;49.408;8.702;2023-05-16T09:55:25;1.60;;;1.50;;
6902;SDS011;20232;49.408;8.702;2023-05-16T09:57:51;1.27;;;1.20;;
6902;SDS011;20232;49.408;8.702;2023-05-16T10:00:16;1.40;;;1.30;;
6902;SDS011;20232;49.408;8.702;2023-05-16T10:02:42;1.40;;;1.30;;
6902;SDS011;20232;49.408;8.702;2023-05-16T10:05:08;1.60;;;1.50;;
6902;SDS011;20232;49.408;8.702;2023-05-16T10:07:33;1.40;;;1.30;;
6902;SDS011;20232;49.408;8.702;2023-05-16T10:10:00;1.33;;;1.33;;
6902;SDS011;20232;49.408;8.702;2023-05-16T10:12:30;2.20;;;1.60;;
6902;SDS011;20232;49.408;8.702;2023-05-16T10:14:56;1.50;;;1.40;;
6902;SDS011;20232;49.408;8.702;2023-05-16T10:17:25;1.53;;;1.17;;
6902;SDS011;20232;49.408;8.702;2023-05-16T10:19:51;2.83;;;1.30;;
6902;SDS011;20232;49.408;8.702;2023-05-16T10:22:18;2.80;;;1.40;;
6902;SDS011;20232;49.408;8.702;2023-05-16T10:24:47;1.63;;;1.40;;
6902;SDS011;20232;49.408;8.702;2023-05-16T10:27:16;2.10;;;1.30;;
6902;SDS011;20232;49.408;8.702;2023-05-16T10:29:42;1.60;;;1.50;;
6902;SDS011;20232;49.408;8.702;2023-05-16T10:32:08;1.50;;;1.40;;
6902;SDS011;20232;49.408;8.702;2023-05-16T10:34:34;1.60;;;1.50;;
6902;SDS011;20232;49.408;8.702;2023-05-16T10:36:59;2.30;;;1.37;;
6902;SDS011;20232;49.408;8.702;2023-05-16T10:39:25;2.13;;;1.70;;
6902;SDS011;20232;49.408;8.702;2023-05-16T10:41:51;2.00;;;1.60;;
6902;SDS011;20232;49.408;8.702;2023-05-16T10:44:16;1.53;;;1.40;;
6902;SDS011;20232;49.408;8.702;2023-05-16T10:46:42;1.57;;;1.30;;
6902;SDS011;20232;49.408;8.702;2023-05-16T10:49:21;1.60;;;1.50;;
6902;SDS011;20232;49.408;8.702;2023-05-16T10:54:34;1.60;;;1.40;;
6902;SDS011;20232;49.408;8.702;2023-05-16T10:57:18;2.07;;;1.60;;
6902;SDS011;20232;49.408;8.702;2023-05-16T10:59:48;1.57;;;1.40;;
6902;SDS011;20232;49.408;8.702;2023-05-16T11:02:27;1.87;;;1.57;;
6902;SDS011;20232;49.408;8.702;2023-05-16T11:04:54;2.50;;;1.80;;
6902;SDS011;20232;49.408;8.702;2023-05-16T11:07:21;1.70;;;1.60;;
6902;SDS011;20232;49.408;8.702;2023-05-16T11:10:01;1.70;;;1.60;;
6902;SDS011;20232;49.408;8.702;2023-05-16T11:12:43;1.90;;;1.80;;
6902;SDS011;20232;49.408;8.702;2023-05-16T11:15:21;2.77;;;1.40;;
6902;SDS011;20232;49.408;8.702;2023-05-16T11:18:05;3.57;;;1.50;;
6902;SDS011;20232;49.408;8.702;2023-05-16T11:20:37;1.73;;;1.30;;
6902;SDS011;20232;49.408;8.702;2023-05-16T11:23:16;2.13;;;1.53;;
6902;SDS011;20232;49.408;8.702;2023-05-16T11:25:50;2.37;;;1.70;;
6902;SDS011;20232;49.408;8.702;2023-05-16T11:28:18;3.13;;;1.63;;
6902;SDS011;20232;49.408;8.702;2023-05-16T11:30:44;2.10;;;1.50;;
6902;SDS011;20232;49.408;8.702;2023-05-16T11:33:14;2.63;;;1.40;;
6902;SDS011;20232;49.408;8.702;2023-05-16T11:35:40;2.23;;;1.97;;
6902;SDS011;20232;49.408;8.702;2023-05-16T11:38:13;2.73;;;2.03;;
6902;SDS011;20232;49.408;8.702;2023-05-16T11:40:44;2.00;;;1.80;;
6902;SDS011;20232;49.408;8.702;2023-05-16T11:43:10;3.43;;;2.03;;
6902;SDS011;20232;49.408;8.702;2023-05-16T11:45:36;3.43;;;1.57;;
6902;SDS011;20232;49.408;8.702;2023-05-16T11:48:02;2.93;;;1.70;;
6902;SDS011;20232;49.408;8.702;2023-05-16T11:50:28;3.83;;;1.67;;
6902;SDS011;20232;49.408;8.702;2023-05-16T11:52:54;3.00;;;1.57;;
6902;SDS011;20232;49.408;8.702;2023-05-16T11:55:25;18.20;;;3.93;;
6902;SDS011;20232;49.408;8.702;2023-05-16T11:57:58;2.30;;;1.70;;
6902;SDS011;20232;49.408;8.702;2023-05-16T12:00:24;3.20;;;1.70;;
6902;SDS011;20232;49.408;8.702;2023-05-16T12:02:51;2.50;;;1.53;;
6902;SDS011;20232;49.408;8.702;2023-05-16T12:05:17;1.70;;;1.53;;
6902;SDS011;20232;49.408;8.702;2023-05-16T12:07:47;2.10;;;1.50;;
6902;SDS011;20232;49.408;8.702;2023-05-16T12:10:14;1.70;;;1.60;;
6902;SDS011;20232;49.408;8.702;2023-05-16T12:12:41;4.83;;;2.50;;
6902;SDS011;20232;49.408;8.702;2023-05-16T12:15:09;2.67;;;1.80;;
6902;SDS011;20232;49.408;8.702;2023-05-16T12:17:35;1.93;;;1.50;;
6902;SDS011;20232;49.408;8.702;2023-05-16T12:20:02;2.53;;;1.80;;
6902;SDS011;20232;49.408;8.702;2023-05-16T12:22:30;3.00;;;1.60;;
6902;SDS011;20232;49.408;8.702;2023-05-16T12:24:57;3.37;;;2.00;;
6902;SDS011;20232;49.408;8.702;2023-05-16T12:27:24;1.97;;;1.57;;
6902;SDS011;20232;49.408;8.702;2023-05-16T12:29:50;2.33;;;1.50;;
6902;SDS011;20232;49.408;8.702;2023-05-16T12:32:19;3.47;;;1.77;;
6902;SDS011;20232;49.408;8.702;2023-05-16T12:34:51;3.30;;;1.83;;
6902;SDS011;20232;49.408;8.702;2023-05-16T12:37:17;4.80;;;1.93;;
6902;SDS011;20232;49.408;8.702;2023-05-16T12:39:43;3.87;;;2.10;;
6902;SDS011;20232;49.408;8.702;2023-05-16T12:42:11;3.27;;;1.70;;
6902;SDS011;20232;49.408;8.702;2023-05-16T12:44:37;3.77;;;1.80;;
6902;SDS011;20232;49.408;8.702;2023-05-16T12:47:03;4.60;;;2.27;;
6902;SDS011;20232;49.408;8.702;2023-05-16T12:49:28;5.43;;;2.77;;
6902;SDS011;20232;49.408;8.702;2023-05-16T12:51:54;3.53;;;2.27;;
6902;SDS011;20232;49.408;8.702;2023-05-16T12:54:22;3.90;;;2.07;;
6902;SDS011;20232;49.408;8.702;2023-05-16T12:56:48;4.10;;;2.10;;
6902;SDS011;20232;49.408;8.702;2023-05-16T12:59:13;4.57;;;2.20;;
6902;SDS011;20232;49.408;8.702;2023-05-16T13:01:39;5.57;;;2.43;;
6902;SDS011;20232;49.408;8.702;2023-05-16T13:04:05;5.27;;;2.27;;
6902;SDS011;20232;49.408;8.702;2023-05-16T13:06:31;2.70;;;2.00;;
6902;SDS011;20232;49.408;8.702;2023-05-16T13:08:57;6.33;;;2.43;;
6902;SDS011;20232;49.408;8.702;2023-05-16T13:11:23;4.70;;;2.20;;
6902;SDS011;20232;49.408;8.702;2023-05-16T13:13:49;4.27;;;2.40;;
6902;SDS011;20232;49.408;8.702;2023-05-16T13:16:14;3.93;;;2.20;;
6902;SDS011;20232;49.408;8.702;2023-05-16T13:18:40;4.73;;;2.20;;
6902;SDS011;20232;49.408;8.702;2023-05-16T13:21:05;3.90;;;2.10;;
6902;SDS011;20232;49.408;8.702;2023-05-16T13:23:31;4.97;;;2.20;;
6902;SDS011;20232;49.408;8.702;2023-05-16T13:25:57;4.03;;;2.17;;
6902;SDS011;20232;49.408;8.702;2023-05-16T13:28:23;4.23;;;2.30;;
6902;SDS011;20232;49.408;8.702;2023-05-16T13:30:49;3.43;;;2.10;;
6902;SDS011;20232;49.408;8.702;2023-05-16T13:33:14;6.47;;;2.37;;
6902;SDS011;20232;49.408;8.702;2023-05-16T13:35:40;5.40;;;2.03;;
6902;SDS011;20232;49.408;8.702;2023-05-16T13:38:05;3.33;;;2.13;;
6902;SDS011;20232;49.408;8.702;2023-05-16T13:40:31;3.97;;;2.30;;
6902;SDS011;20232;49.408;8.702;2023-05-16T13:42:56;5.17;;;2.27;;
6902;SDS011;20232;49.408;8.702;2023-05-16T13:45:22;6.27;;;2.10;;
6902;SDS011;20232;49.408;8.702;2023-05-16T13:47:47;4.43;;;2.07;;
6902;SDS011;20232;49.408;8.702;2023-05-16T13:50:13;7.07;;;2.40;;
6902;SDS011;20232;49.408;8.702;2023-05-16T13:52:38;5.07;;;2.23;;
6902;SDS011;20232;49.408;8.702;2023-05-16T13:55:04;5.37;;;2.50;;
6902;SDS011;20232;49.408;8.702;2023-05-16T13:57:30;3.70;;;1.90;;
6902;SDS011;20232;49.408;8.702;2023-05-16T13:59:57;5.13;;;2.47;;
6902;SDS011;20232;49.408;8.702;2023-05-16T14:02:22;4.60;;;2.40;;
6902;SDS011;20232;49.408;8.702;2023-05-16T14:04:50;6.47;;;2.10;;
6902;SDS011;20232;49.408;8.702;2023-05-16T14:07:15;4.93;;;1.90;;
6902;SDS011;20232;49.408;8.702;2023-05-16T14:09:41;4.57;;;2.00;;
6902;SDS011;20232;49.408;8.702;2023-05-16T14:12:08;4.50;;;1.93;;
6902;SDS011;20232;49.408;8.702;2023-05-16T14:14:34;5.03;;;2.20;;
6902;SDS011;20232;49.408;8.702;2023-05-16T14:16:59;3.83;;;1.60;;
6902;SDS011;20232;49.408;8.702;2023-05-16T14:19:25;4.53;;;1.90;;
6902;SDS011;20232;49.408;8.702;2023-05-16T14:21:50;5.13;;;1.90;;
6902;SDS011;20232;49.408;8.702;2023-05-16T14:24:16;3.57;;;1.57;;
6902;SDS011;20232;49.408;8.702;2023-05-16T14:26:41;5.03;;;1.87;;
6902;SDS011;20232;49.408;8.702;2023-05-16T14:29:06;4.57;;;1.90;;
6902;SDS011;20232;49.408;8.702;2023-05-16T14:31:32;4.67;;;1.90;;
6902;SDS011;20232;49.408;8.702;2023-05-16T14:33:57;7.10;;;1.70;;
6902;SDS011;20232;49.408;8.702;2023-05-16T14:36:23;3.93;;;2.00;;
6902;SDS011;20232;49.408;8.702;2023-05-16T14:38:49;3.87;;;1.60;;
6902;SDS011;20232;49.408;8.702;2023-05-16T14:41:15;4.27;;;1.70;;
6902;SDS011;20232;49.408;8.702;2023-05-16T14:43:40;5.50;;;1.80;;
6902;SDS011;20232;49.408;8.702;2023-05-16T14:46:06;5.70;;;1.73;;
6902;SDS011;20232;49.408;8.702;2023-05-16T14:48:31;5.77;;;2.03;;
6902;SDS011;20232;49.408;8.702;2023-05-16T14:50:57;3.83;;;1.70;;
6902;SDS011;20232;49.408;8.702;2023-05-16T14:53:23;4.97;;;1.80;;
6902;SDS011;20232;49.408;8.702;2023-05-16T14:55:48;3.27;;;1.60;;
6902;SDS011;20232;49.408;8.702;2023-05-16T14:58:14;3.40;;;1.63;;
6902;SDS011;20232;49.408;8.702;2023-05-16T15:00:39;3.47;;;1.53;;
6902;SDS011;20232;49.408;8.702;2023-05-16T15:03:05;4.00;;;1.60;;
6902;SDS011;20232;49.408;8.702;2023-05-16T15:05:30;2.77;;;1.60;;
6902;SDS011;20232;49.408;8.702;2023-05-16T15:07:56;3.93;;;1.53;;
6902;SDS011;20232;49.408;8.702;2023-05-16T15:10:21;5.30;;;1.80;;
6902;SDS011;20232;49.408;8.702;2023-05-16T15:12:47;6.63;;;1.77;;
6902;SDS011;20232;49.408;8.702;2023-05-16T15:15:12;4.97;;;1.70;;
6902;SDS011;20232;49.408;8.702;2023-05-16T15:17:38;3.57;;;1.80;;
6902;SDS011;20232;49.408;8.702;2023-05-16T15:20:06;6.07;;;1.60;;
6902;SDS011;20232;49.408;8.702;2023-05-16T15:22:33;3.03;;;1.70;;
6902;SDS011;20232;49.408;8.702;2023-05-16T15:24:59;3.67;;;1.60;;
6902;SDS011;20232;49.408;8.702;2023-05-16T15:27:24;4.20;;;1.60;;
6902;SDS011;20232;49.408;8.702;2023-05-16T15:29:50;4.50;;;1.57;;
6902;SDS011;20232;49.408;8.702;2023-05-16T15:32:16;4.73;;;1.47;;
6902;SDS011;20232;49.408;8.702;2023-05-16T15:34:42;2.70;;;1.40;;
6902;SDS011;20232;49.408;8.702;2023-05-16T15:37:07;3.97;;;1.60;;
6902;SDS011;20232;49.408;8.702;2023-05-16T15:39:33;3.57;;;1.60;;
6902;SDS011;20232;49.408;8.702;2023-05-16T15:42:00;3.47;;;1.60;;
6902;SDS011;20232;49.408;8.702;2023-05-16T15:44:28;4.73;;;1.50;;
6902;SDS011;20232;49.408;8.702;2023-05-16T15:46:53;4.17;;;1.57;;
6902;SDS011;20232;49.408;8.702;2023-05-16T15:49:19;2.87;;;1.67;;
6902;SDS011;20232;49.408;8.702;2023-05-16T15:51:45;2.83;;;1.40;;
6902;SDS011;20232;49.408;8.702;2023-05-16T15:54:11;3.07;;;1.50;;
6902;SDS011;20232;49.408;8.702;2023-05-16T15:56:36;3.00;;;1.50;;
6902;SDS011;20232;49.408;8.702;2023-05-16T15:59:02;3.27;;;1.67;;
6902;SDS011;20232;49.408;8.702;2023-05-16T16:01:27;2.77;;;1.43;;
6902;SDS011;20232;49.408;8.702;2023-05-16T16:03:52;4.70;;;1.43;;
6902;SDS011;20232;49.408;8.702;2023-05-16T16:06:18;4.87;;;1.80;;
6902;SDS011;20232;49.408;8.702;2023-05-16T16:08:43;3.77;;;1.50;;
6902;SDS011;20232;49.408;8.702;2023-05-16T16:11:09;2.80;;;1.63;;
6902;SDS011;20232;49.408;8.702;2023-05-16T16:13:34;3.93;;;1.77;;
6902;SDS011;20232;49.408;8.702;2023-05-16T16:15:59;4.33;;;1.50;;
6902;SDS011;20232;49.408;8.702;2023-05-16T16:18:31;4.23;;;1.50;;
6902;SDS011;20232;49.408;8.702;2023-05-16T16:20:56;3.80;;;1.47;;
6902;SDS011;20232;49.408;8.702;2023-05-16T16:23:22;4.57;;;1.73;;
6902;SDS011;20232;49.408;8.702;2023-05-16T16:25:47;4.00;;;1.30;;
6902;SDS011;20232;49.408;8.702;2023-05-16T16:28:13;3.93;;;1.50;;
6902;SDS011;20232;49.408;8.702;2023-05-16T16:30:39;3.60;;;1.63;;
6902;SDS011;20232;49.408;8.702;2023-05-16T16:33:05;4.70;;;1.70;;
6902;SDS011;20232;49.408;8.702;2023-05-16T16:35:31;4.40;;;1.73;;
6902;SDS011;20232;49.408;8.702;2023-05-16T16:37:57;6.10;;;2.10;;
6902;SDS011;20232;49.408;8.702;2023-05-16T16:40:26;6.47;;;1.70;;
6902;SDS011;20232;49.408;8.702;2023-05-16T16:42:51;3.77;;;1.60;;
6902;SDS011;20232;49.408;8.702;2023-05-16T16:45:17;4.57;;;1.90;;
6902;SDS011;20232;49.408;8.702;2023-05-16T16:47:42;5.30;;;1.90;;
6902;SDS011;20232;49.408;8.702;2023-05-16T16:50:08;2.97;;;1.70;;
6902;SDS011;20232;49.408;8.702;2023-05-16T16:52:33;2.67;;;1.50;;
6902;SDS011;20232;49.408;8.702;2023-05-16T16:54:59;4.83;;;1.53;;
6902;SDS011;20232;49.408;8.702;2023-05-16T16:57:25;2.50;;;1.60;;
6902;SDS011;20232;49.408;8.702;2023-05-16T16:59:50;3.67;;;1.50;;
6902;SDS011;20232;49.408;8.702;2023-05-16T17:02:16;5.30;;;1.53;;
6902;SDS011;20232;49.408;8.702;2023-05-16T17:04:41;15.03;;;6.73;;
6902;SDS011;20232;49.408;8.702;2023-05-16T17:07:07;8.13;;;3.20;;
6902;SDS011;20232;49.408;8.702;2023-05-16T17:09:35;3.17;;;1.70;;
6902;SDS011;20232;49.408;8.702;2023-05-16T17:12:01;8.10;;;3.30;;
6902;SDS011;20232;49.408;8.702;2023-05-16T17:14:32;13.17;;;5.47;;
6902;SDS011;20232;49.408;8.702;2023-05-16T17:16:57;6.27;;;2.67;;
6902;SDS011;20232;49.408;8.702;2023-05-16T17:19:23;5.30;;;2.43;;
6902;SDS011;20232;49.408;8.702;2023-05-16T17:21:48;5.90;;;3.07;;
6902;SDS011;20232;49.408;8.702;2023-05-16T17:24:14;46.30;;;20.70;;
6902;SDS011;20232;49.408;8.702;2023-05-16T17:26:40;22.10;;;8.93;;
6902;SDS011;20232;49.408;8.702;2023-05-16T17:29:05;4.13;;;2.00;;
6902;SDS011;20232;49.408;8.702;2023-05-16T17:31:30;6.07;;;2.50;;
6902;SDS011;20232;49.408;8.702;2023-05-16T17:33:56;4.43;;;2.20;;
6902;SDS011;20232;49.408;8.702;2023-05-16T17:36:22;6.63;;;2.63;;
6902;SDS011;20232;49.408;8.702;2023-05-16T17:38:47;4.73;;;1.90;;
6902;SDS011;20232;49.408;8.702;2023-05-16T17:41:13;3.10;;;1.50;;
6902;SDS011;20232;49.408;8.702;2023-05-16T17:43:38;6.77;;;2.57;;
6902;SDS011;20232;49.408;8.702;2023-05-16T17:46:04;2.40;;;1.40;;
6902;SDS011;20232;49.408;8.702;2023-05-16T17:48:32;2.40;;;1.50;;
6902;SDS011;20232;49.408;8.702;2023-05-16T17:50:57;2.83;;;1.60;;
6902;SDS011;20232;49.408;8.702;2023-05-16T17:53:23;5.57;;;1.83;;
6902;SDS011;20232;49.408;8.702;2023-05-16T17:55:49;4.30;;;1.57;;
6902;SDS011;20232;49.408;8.702;2023-05-16T17:58:15;5.50;;;2.07;;
6902;SDS011;20232;49.408;8.702;2023-05-16T18:00:42;3.67;;;1.50;;
6902;SDS011;20232;49.408;8.702;2023-05-16T18:03:08;1.90;;;1.50;;
6902;SDS011;20232;49.408;8.702;2023-05-16T18:05:33;4.57;;;1.80;;
6902;SDS011;20232;49.408;8.702;2023-05-16T18:07:58;3.87;;;1.57;;
6902;SDS011;20232;49.408;8.702;2023-05-16T18:10:24;4.23;;;1.63;;
6902;SDS011;20232;49.408;8.702;2023-05-16T18:12:49;2.93;;;1.40;;
6902;SDS011;20232;49.408;8.702;2023-05-16T18:15:15;3.67;;;1.50;;
6902;SDS011;20232;49.408;8.702;2023-05-16T18:17:42;5.10;;;2.00;;
6902;SDS011;20232;49.408;8.702;2023-05-16T18:20:08;6.23;;;2.00;;
6902;SDS011;20232;49.408;8.702;2023-05-16T18:22:37;8.97;;;4.57;;
6902;SDS011;20232;49.408;8.702;2023-05-16T18:25:03;3.43;;;1.90;;
6902;SDS011;20232;49.408;8.702;2023-05-16T18:27:30;5.37;;;2.07;;
6902;SDS011;20232;49.408;8.702;2023-05-16T18:29:56;3.20;;;1.63;;
6902;SDS011;20232;49.408;8.702;2023-05-16T18:32:22;4.23;;;1.70;;
6902;SDS011;20232;49.408;8.702;2023-05-16T18:34:47;4.60;;;1.70;;
6902;SDS011;20232;49.408;8.702;2023-05-16T18:37:13;4.33;;;1.53;;
6902;SDS011;20232;49.408;8.702;2023-05-16T18:39:38;4.57;;;1.90;;
6902;SDS011;20232;49.408;8.702;2023-05-16T18:42:05;5.13;;;2.10;;
6902;SDS011;20232;49.408;8.702;2023-05-16T18:44:31;5.23;;;2.10;;
6902;SDS011;20232;49.408;8.702;2023-05-16T18:46:56;3.90;;;1.70;;
6902;SDS011;20232;49.408;8.702;2023-05-16T18:49:22;2.73;;;1.40;;
6902;SDS011;20232;49.408;8.702;2023-05-16T18:51:48;3.60;;;1.80;;
6902;SDS011;20232;49.408;8.702;2023-05-16T18:54:13;3.67;;;1.80;;
6902;SDS011;20232;49.408;8.702;2023-05-16T18:56:39;2.30;;;1.70;;
6902;SDS011;20232;49.408;8.702;2023-05-16T18:59:06;3.40;;;1.60;;